Time;durP1;ratioP1;P1;durP2;ratioP2;P2;SDS_P1;SDS_P2;PMS_P1;PMS_P2;Temp;Humidity;BMP_temperature;BMP_pressure;BME280_temperature;BME280_humidity;BME280_pressure;Samples;Min_cycle;Max_cycle;Signal;HPM_P1;HPM_P2
2022/11/03 00:01:36;;;;;;;15.73;3.60;;;;;;;11.29;76.55;101417.41;5056605;28;20033;-66
2022/11/03 00:04:02;;;;;;;18.25;4.18;;;;;;;11.31;76.61;101404.41;5068448;28;20028;-66
2022/11/03 00:06:27;;;;;;;17.77;4.03;;;;;;;11.30;76.63;101403.53;5051110;28;20108;-66
2022/11/03 00:08:52;;;;;;;22.95;5.25;;;;;;;11.31;76.54;101399.19;5051007;28;20510;-66
2022/11/03 00:11:17;;;;;;;22.67;4.07;;;;;;;11.30;76.60;101392.22;5070696;28;20175;-66
2022/11/03 00:13:43;;;;;;;24.13;4.55;;;;;;;11.31;76.48;101387.03;5057433;28;20028;-66
2022/11/03 00:16:11;;;;;;;18.77;4.20;;;;;;;11.34;76.29;101390.56;5061458;28;20318;-66
2022/11/03 00:18:37;;;;;;;19.40;4.22;;;;;;;11.35;76.48;101393.22;5059115;28;20029;-66
2022/11/03 00:21:08;;;;;;;19.88;3.78;;;;;;;11.35;76.45;101379.31;5056299;28;20184;-66
2022/11/03 00:23:35;;;;;;;18.42;4.00;;;;;;;11.35;76.54;101389.75;5057005;28;20099;-66
2022/11/03 00:26:15;;;;;;;19.38;3.55;;;;;;;11.36;76.10;101379.34;5055566;28;20036;-66
2022/11/03 00:28:43;;;;;;;15.98;3.55;;;;;;;11.37;76.36;101375.00;5057829;28;20035;-76
2022/11/03 00:31:15;;;;;;;23.95;4.78;;;;;;;11.37;76.11;101372.38;5071545;28;20107;-76
2022/11/03 00:33:41;;;;;;;26.13;4.45;;;;;;;11.36;76.33;101374.13;5056582;28;21324;-75
2022/11/03 00:36:09;;;;;;;17.65;4.00;;;;;;;11.36;76.08;101368.03;5060311;28;20255;-76
2022/11/03 00:38:34;;;;;;;16.35;3.78;;;;;;;11.38;76.00;101376.78;5062250;28;20275;-76
2022/11/03 00:41:01;;;;;;;21.10;4.35;;;;;;;11.38;76.08;101364.59;5078401;28;20032;-76
2022/11/03 00:43:28;;;;;;;15.07;4.38;;;;;;;11.40;75.63;101356.84;5062936;28;20029;-76
2022/11/03 00:45:54;;;;;;;20.95;4.43;;;;;;;11.42;75.62;101337.75;5054474;28;20025;-76
2022/11/03 00:48:28;;;;;;;19.13;3.90;;;;;;;11.45;75.33;101343.06;5060569;28;20028;-76
2022/11/03 00:51:15;;;;;;;17.42;4.10;;;;;;;11.48;75.40;101342.28;5056041;28;20122;-76
2022/11/03 00:53:43;;;;;;;19.20;3.80;;;;;;;11.48;75.40;101331.84;5055011;28;20190;-76
2022/11/03 00:56:11;;;;;;;15.43;3.58;;;;;;;11.48;75.43;101337.06;5057715;28;20108;-76
2022/11/03 00:58:36;;;;;;;19.88;4.63;;;;;;;11.48;75.63;101332.75;5055295;28;20028;-76
2022/11/03 01:01:11;;;;;;;13.48;3.53;;;;;;;11.49;75.95;101325.78;5057064;28;20088;-76
2022/11/03 01:03:38;;;;;;;15.85;3.72;;;;;;;11.49;75.75;101325.78;5056103;28;20516;-76
2022/11/03 01:08:53;;;;;;;18.37;3.93;;;;;;;11.50;75.44;101306.69;5055724;28;20294;-75
2022/11/03 01:14:07;;;;;;;16.77;3.30;;;;;;;11.58;75.27;101310.34;5056788;28;20093;-76
2022/11/03 01:16:33;;;;;;;19.98;3.60;;;;;;;11.59;75.23;101306.91;5055014;28;20088;-76
2022/11/03 01:18:58;;;;;;;16.67;3.83;;;;;;;11.62;75.42;101301.78;5050871;28;20275;-76
2022/11/03 01:21:24;;;;;;;20.70;3.92;;;;;;;11.63;75.23;101313.13;5059510;28;20029;-76
2022/11/03 01:23:49;;;;;;;20.80;3.80;;;;;;;11.66;75.43;101301.03;5055129;28;20082;-77
2022/11/03 01:26:15;;;;;;;19.80;3.67;;;;;;;11.71;74.96;101306.34;5058826;28;20025;-76
2022/11/03 01:28:43;;;;;;;21.50;3.72;;;;;;;11.73;74.82;101299.47;5056727;28;20037;-76
2022/11/03 01:31:11;;;;;;;16.42;3.60;;;;;;;11.76;74.63;101298.63;5055182;28;20178;-76
2022/11/03 01:33:38;;;;;;;15.87;3.80;;;;;;;11.78;74.74;101296.97;5054430;28;20356;-76
2022/11/03 01:36:03;;;;;;;17.60;3.63;;;;;;;11.79;74.69;101294.41;5054611;28;20319;-76
2022/11/03 01:38:33;;;;;;;16.40;3.40;;;;;;;11.80;74.77;101288.34;5054250;28;20083;-76
2022/11/03 01:40:59;;;;;;;21.75;4.13;;;;;;;11.83;74.77;101292.72;5069896;28;20164;-77
2022/11/03 01:43:27;;;;;;;16.27;4.22;;;;;;;11.83;74.86;101279.66;5055207;28;20106;-76
2022/11/03 01:46:05;;;;;;;17.70;4.15;;;;;;;11.82;75.14;101273.59;5053669;28;20032;-76
2022/11/03 01:48:33;;;;;;;13.50;4.20;;;;;;;11.82;74.77;101268.34;5055440;28;20224;-76
2022/11/03 01:51:00;;;;;;;18.40;3.58;;;;;;;11.84;75.00;101266.66;5055068;28;20062;-75
2022/11/03 01:53:27;;;;;;;19.15;3.88;;;;;;;11.86;75.13;101258.88;5054872;28;20021;-77
2022/11/03 01:55:55;;;;;;;14.25;3.60;;;;;;;11.87;75.02;101255.41;5054713;28;20096;-76
2022/11/03 01:58:26;;;;;;;25.00;3.92;;;;;;;11.89;75.28;101256.34;5054817;28;20100;-76
2022/11/03 02:00:54;;;;;;;16.10;3.50;;;;;;;11.89;75.28;101252.84;5055973;28;20024;-75
2022/11/03 02:03:21;;;;;;;14.20;3.70;;;;;;;11.89;75.32;101256.34;5054869;28;20039;-76
2022/11/03 02:05:48;;;;;;;16.23;4.00;;;;;;;11.88;75.39;101261.53;5053000;28;20318;-76
2022/11/03 02:08:21;;;;;;;17.20;4.13;;;;;;;11.87;75.49;101244.97;5053958;28;20021;-75
2022/11/03 02:10:48;;;;;;;18.83;4.00;;;;;;;11.85;75.42;101254.50;5055114;28;20161;-76
2022/11/03 02:13:21;;;;;;;15.38;3.65;;;;;;;11.84;75.75;101247.50;5054960;28;20040;-76
2022/11/03 02:15:50;;;;;;;20.83;4.38;;;;;;;11.85;75.64;101244.06;5053293;28;20074;-76
2022/11/03 02:18:18;;;;;;;15.33;3.90;;;;;;;11.85;75.48;101236.22;5054936;28;20047;-76
2022/11/03 02:20:47;;;;;;;19.65;3.70;;;;;;;11.88;75.55;101235.44;5056041;28;20140;-76
2022/11/03 02:23:41;;;;;;;19.05;3.88;;;;;;;11.88;75.60;101228.47;5054447;28;20048;-76
2022/11/03 02:26:10;;;;;;;17.85;3.63;;;;;;;11.88;75.50;101230.22;5058167;28;20021;-76
2022/11/03 02:28:35;;;;;;;19.40;4.63;;;;;;;11.88;75.62;101220.63;5062363;28;20029;-76
2022/11/03 02:31:03;;;;;;;15.40;4.55;;;;;;;11.86;75.58;101209.28;5052634;28;20114;-75
2022/11/03 02:33:55;;;;;;;13.93;3.38;;;;;;;11.87;75.49;101221.47;5065265;28;20267;-76
2022/11/03 02:36:42;;;;;;;15.18;3.60;;;;;;;11.86;75.56;101206.66;5064568;28;20033;-76
2022/11/03 02:39:18;;;;;;;17.42;3.70;;;;;;;11.84;75.80;101204.00;5065188;28;20028;-76
2022/11/03 02:41:46;;;;;;;19.63;4.00;;;;;;;11.82;75.91;101194.38;5064727;28;20055;-77
2022/11/03 02:44:15;;;;;;;15.30;3.55;;;;;;;11.80;75.98;101196.06;5054426;28;20212;-77
2022/11/03 02:46:43;;;;;;;15.25;3.40;;;;;;;11.80;75.88;101185.59;5063956;28;20084;-76
2022/11/03 02:49:09;;;;;;;13.82;4.05;;;;;;;11.79;76.15;101189.97;5061099;28;20025;-75
2022/11/03 02:51:34;;;;;;;22.35;4.53;;;;;;;11.77;76.13;101186.41;5064836;28;20053;-74
2022/11/03 02:54:05;;;;;;;21.58;4.22;;;;;;;11.76;76.12;101171.63;5062434;28;20268;-76
2022/11/03 02:56:37;;;;;;;15.23;3.75;;;;;;;11.74;76.68;101177.63;5064013;28;20377;-77
2022/11/03 02:59:10;;;;;;;12.23;3.70;;;;;;;11.73;76.67;101175.88;5064411;28;20033;-76
2022/11/03 03:01:46;;;;;;;15.73;3.53;;;;;;;11.70;76.77;101161.00;5064852;28;20033;-76
2022/11/03 03:04:19;;;;;;;19.38;4.00;;;;;;;11.70;76.73;101165.34;5064359;28;20278;-76
2022/11/03 03:07:00;;;;;;;13.43;3.42;;;;;;;11.71;76.93;101164.50;5064669;28;20036;-77
2022/11/03 03:09:30;;;;;;;17.75;3.88;;;;;;;11.70;77.13;101162.75;5061859;28;20025;-76
2022/11/03 03:11:58;;;;;;;12.07;3.72;;;;;;;11.71;77.07;101151.47;5057758;28;20161;-76
2022/11/03 03:14:28;;;;;;;23.02;4.53;;;;;;;11.70;76.93;101140.13;5056405;28;20028;-76
2022/11/03 03:17:01;;;;;;;20.60;4.97;;;;;;;11.72;77.34;101124.53;5073136;28;20017;-76
2022/11/03 03:19:40;;;;;;;24.38;4.40;;;;;;;11.73;77.29;101147.16;5073360;28;20156;-76
2022/11/03 03:22:32;;;;;;;;;;;;;;;11.77;76.59;101133.31;5058406;28;20025;-76
2022/11/03 03:25:15;;;;;;;20.98;4.15;;;;;;;11.78;76.87;101137.72;5036194;28;19927;-76
2022/11/03 03:27:45;;;;;;;17.40;3.78;;;;;;;11.78;77.25;101128.13;5056477;28;20101;-66
2022/11/03 03:30:11;;;;;;;13.35;4.45;;;;;;;11.78;77.22;101124.66;5060191;28;20096;-66
2022/11/03 03:32:42;;;;;;;20.67;4.03;;;;;;;11.78;77.37;101129.88;5063011;28;20079;-66
2022/11/03 03:35:12;;;;;;;12.77;3.85;;;;;;;11.77;77.38;101128.09;5062583;28;20110;-66
2022/11/03 03:37:42;;;;;;;23.35;5.78;;;;;;;11.76;77.46;101123.72;5059770;28;20041;-66
2022/11/03 03:40:11;;;;;;;17.25;4.47;;;;;;;11.75;77.63;101124.59;5059279;28;20033;-66
2022/11/03 03:42:39;;;;;;;13.55;3.65;;;;;;;11.74;77.71;101112.38;5060898;28;20033;-66
2022/11/03 03:45:07;;;;;;;16.70;4.35;;;;;;;11.73;77.72;101111.50;5057688;28;20024;-66
2022/11/03 03:47:33;;;;;;;16.53;4.10;;;;;;;11.73;77.74;101102.78;5056762;28;20036;-66
2022/11/03 03:50:00;;;;;;;15.60;4.32;;;;;;;11.74;77.82;101107.16;5057098;28;20031;-66
2022/11/03 03:52:26;;;;;;;14.35;3.63;;;;;;;11.73;78.04;101105.38;5056004;28;20040;-66
2022/11/03 03:54:51;;;;;;;15.20;3.70;;;;;;;11.73;78.19;101092.31;5054248;28;20041;-66
2022/11/03 03:57:20;;;;;;;19.65;4.32;;;;;;;11.74;78.35;101086.28;5053783;28;20037;-66
2022/11/03 03:59:46;;;;;;;16.83;3.80;;;;;;;11.75;78.32;101082.81;5055951;28;20041;-66
2022/11/03 04:02:12;;;;;;;20.45;4.25;;;;;;;11.76;78.47;101092.41;5056695;28;20020;-66
2022/11/03 04:04:37;;;;;;;17.92;3.88;;;;;;;11.77;78.23;101086.34;5056985;28;21078;-66
2022/11/03 04:09:47;;;;;;;18.27;3.92;;;;;;;11.77;78.65;101083.72;5056204;28;20226;-66
2022/11/03 04:23:13;;;;;;;17.67;4.25;;;;;;;11.77;79.08;101073.28;5056502;28;20063;-66
2022/11/03 04:25:38;;;;;;;17.02;4.00;;;;;;;11.78;79.36;101075.06;5056665;28;20142;-67
2022/11/03 04:28:12;;;;;;;17.25;4.32;;;;;;;11.78;79.38;101065.47;5056241;28;20033;-66
2022/11/03 04:30:37;;;;;;;12.60;3.67;;;;;;;11.78;79.29;101056.78;5057778;28;20201;-66
2022/11/03 04:33:08;;;;;;;18.27;4.68;;;;;;;11.78;79.46;101051.56;5056125;28;20278;-65
2022/11/03 04:35:33;;;;;;;15.98;4.30;;;;;;;11.79;79.72;101050.72;5056193;28;20295;-66
2022/11/03 04:38:28;;;;;;;15.20;3.70;;;;;;;11.80;79.53;101042.03;5056062;28;20096;-75
2022/11/03 04:40:56;;;;;;;20.83;4.20;;;;;;;11.81;79.94;101052.50;5071175;28;20270;-76
2022/11/03 04:43:36;;;;;;;23.95;5.05;;;;;;;11.82;79.78;101050.78;5056042;28;20031;-76
2022/11/03 04:46:02;;;;;;;19.75;4.38;;;;;;;11.81;79.96;101051.63;5055941;28;20272;-75
2022/11/03 04:48:28;;;;;;;21.52;4.05;;;;;;;11.79;80.18;101038.53;5061836;28;20025;-76
2022/11/03 04:50:59;;;;;;;13.00;4.55;;;;;;;11.79;80.32;101048.09;5056166;28;20103;-76
2022/11/03 04:53:29;;;;;;;20.58;4.78;;;;;;;11.81;80.49;101035.97;5055942;28;20168;-77
2022/11/03 04:55:54;;;;;;;13.98;4.20;;;;;;;11.79;80.60;101033.31;5058145;28;20056;-76
2022/11/03 04:58:26;;;;;;;21.48;4.20;;;;;;;11.78;80.56;101031.53;5057671;28;21690;-76
2022/11/03 05:00:56;;;;;;;18.63;4.50;;;;;;;11.80;81.21;101027.25;5055434;28;20021;-76
2022/11/03 05:03:24;;;;;;;16.17;4.22;;;;;;;11.83;80.89;101023.81;5055927;28;20092;-76
2022/11/03 05:05:50;;;;;;;11.05;4.13;;;;;;;11.82;80.85;101019.44;5056228;28;20061;-76
2022/11/03 05:08:20;;;;;;;18.73;4.53;;;;;;;11.82;80.65;101009.00;5055326;28;20318;-76
2022/11/03 05:10:46;;;;;;;;;;;;;;;11.89;80.70;101013.50;5056376;28;20029;-76
2022/11/03 05:13:22;;;;;;;16.17;4.72;;;;;;;11.86;81.13;101012.56;5054685;28;19954;-76
2022/11/03 05:15:50;;;;;;;19.10;4.60;;;;;;;11.85;81.20;101022.13;5055371;28;20024;-76
2022/11/03 05:18:26;;;;;;;17.70;4.45;;;;;;;11.84;81.21;101008.16;5055034;28;20024;-76
2022/11/03 05:21:03;;;;;;;13.52;4.10;;;;;;;11.83;81.43;101002.91;5055588;28;20037;-76
2022/11/03 05:23:35;;;;;;;15.48;4.50;;;;;;;11.81;81.77;101002.88;5055089;28;20313;-76
2022/11/03 05:26:01;;;;;;;15.05;4.13;;;;;;;11.84;81.67;100994.25;5055705;28;20029;-76
2022/11/03 05:28:32;;;;;;;21.40;4.20;;;;;;;11.86;81.83;100991.66;5054456;28;20029;-76
2022/11/03 05:30:57;;;;;;;18.30;4.93;;;;;;;11.85;82.32;100988.19;5054587;28;20029;-77
2022/11/03 05:33:29;;;;;;;24.30;5.00;;;;;;;11.86;82.15;100982.13;5055564;28;20112;-76
2022/11/03 05:35:58;;;;;;;12.75;4.38;;;;;;;11.87;82.49;100983.00;5054686;28;20023;-76
2022/11/03 05:38:24;;;;;;;17.42;4.35;;;;;;;11.89;82.52;100971.75;5071639;28;20013;-76
2022/11/03 05:40:52;;;;;;;22.08;4.72;;;;;;;11.88;82.47;100980.41;5055181;28;20179;-76
2022/11/03 05:43:20;;;;;;;14.95;4.18;;;;;;;11.91;82.59;100975.25;5054282;28;20172;-76
2022/11/03 05:45:49;;;;;;;17.73;4.57;;;;;;;11.91;82.79;100974.38;5055752;28;20025;-76
2022/11/03 05:48:39;;;;;;;24.15;4.57;;;;;;;11.92;82.59;100961.34;5056958;28;20036;-76
2022/11/03 05:51:28;;;;;;;17.85;4.45;;;;;;;11.94;82.35;100958.81;5058418;28;20021;-76
2022/11/03 05:53:58;;;;;;;15.52;3.78;;;;;;;11.94;82.87;100959.66;5059068;28;20021;-76
2022/11/03 05:56:23;;;;;;;14.30;4.85;;;;;;;11.93;82.92;100952.69;5056311;28;20074;-76
2022/11/03 05:58:52;;;;;;;18.33;4.65;;;;;;;11.94;82.90;100951.84;5069458;28;20033;-76
2022/11/03 06:01:29;;;;;;;22.40;4.90;;;;;;;11.93;82.75;100944.84;5061459;28;20287;-76
2022/11/03 06:03:56;;;;;;;22.52;5.03;;;;;;;11.93;82.81;100944.84;5064119;28;20101;-76
2022/11/03 06:06:33;;;;;;;18.13;4.60;;;;;;;11.93;82.97;100938.72;5068116;28;20021;-76
2022/11/03 06:09:02;;;;;;;20.65;5.28;;;;;;;11.92;83.08;100937.84;5068551;28;20025;-76
2022/11/03 06:11:35;;;;;;;20.98;4.50;;;;;;;11.91;83.02;100936.06;5083760;28;20029;-76
2022/11/03 06:14:07;;;;;;;16.65;4.15;;;;;;;11.93;83.19;100930.88;5068471;28;20024;-77
2022/11/03 06:16:42;;;;;;;13.55;3.83;;;;;;;11.93;83.11;100934.41;5067485;28;20159;-76
2022/11/03 06:19:36;;;;;;;19.20;4.93;;;;;;;11.92;82.84;100926.50;5067658;28;20386;-76
2022/11/03 06:22:13;;;;;;;15.63;4.25;;;;;;;11.93;82.93;100923.94;5067714;28;20135;-76
2022/11/03 06:24:38;;;;;;;20.30;4.72;;;;;;;11.91;83.03;100922.16;5069161;28;20275;-76
2022/11/03 06:27:03;;;;;;;15.48;4.30;;;;;;;11.93;83.14;100917.81;5068273;28;20035;-76
2022/11/03 06:29:32;;;;;;;19.27;4.60;;;;;;;11.93;83.41;100920.44;5083707;28;20025;-77
2022/11/03 06:31:57;;;;;;;21.37;4.83;;;;;;;11.96;83.13;100920.53;5067474;28;20025;-76
2022/11/03 06:34:39;;;;;;;19.85;5.65;;;;;;;11.94;83.04;100917.88;5083693;28;20112;-76
2022/11/03 06:37:14;;;;;;;19.70;4.90;;;;;;;11.95;83.17;100914.44;5059109;28;20041;-76
2022/11/03 06:39:40;;;;;;;16.95;4.95;;;;;;;11.94;83.23;100915.28;5068235;28;20271;-76
2022/11/03 06:42:10;;;;;;;18.70;4.32;;;;;;;11.95;83.17;100913.56;5067985;28;20028;-77
2022/11/03 06:44:39;;;;;;;23.15;4.45;;;;;;;11.95;83.21;100909.22;5066950;28;20024;-76
2022/11/03 06:47:24;;;;;;;17.42;4.60;;;;;;;11.96;83.09;100913.59;5068095;28;20029;-76
2022/11/03 06:49:58;;;;;;;18.25;4.50;;;;;;;11.96;82.94;100907.47;5064720;28;20033;-76
2022/11/03 06:52:27;;;;;;;20.17;4.57;;;;;;;11.95;82.95;100897.91;5060509;28;20226;-76
2022/11/03 06:54:58;;;;;;;14.40;3.93;;;;;;;11.96;83.01;100910.97;5060929;28;20263;-76
2022/11/03 06:57:23;;;;;;;19.52;5.03;;;;;;;11.95;82.99;100906.59;5061597;28;20314;-76
2022/11/03 06:59:50;;;;;;;18.27;4.45;;;;;;;11.96;82.86;100905.75;5060944;28;20025;-77
2022/11/03 07:02:45;;;;;;;20.60;4.43;;;;;;;11.96;82.51;100903.16;5061565;28;20074;-76
2022/11/03 07:05:20;;;;;;;22.95;5.32;;;;;;;11.98;82.53;100903.19;5049073;28;20041;-76
2022/11/03 07:07:46;;;;;;;20.00;4.80;;;;;;;11.98;82.80;100901.44;5060942;28;20016;-77
2022/11/03 07:10:11;;;;;;;23.65;5.80;;;;;;;11.98;82.56;100897.94;5060519;28;20024;-76
2022/11/03 07:12:36;;;;;;;18.95;4.70;;;;;;;12.00;82.51;100898.84;5062313;28;20072;-75
2022/11/03 07:15:09;;;;;;;18.02;4.57;;;;;;;12.00;82.58;100883.19;5058869;28;20094;-76
2022/11/03 07:17:35;;;;;;;22.48;5.15;;;;;;;12.03;82.34;100884.97;5057977;28;20047;-76
2022/11/03 07:20:01;;;;;;;23.92;4.63;;;;;;;12.05;82.13;100881.53;5057581;28;20045;-76
2022/11/03 07:22:27;;;;;;;20.30;5.22;;;;;;;12.05;82.20;100881.53;5058168;28;20021;-75
2022/11/03 07:25:02;;;;;;;24.15;4.63;;;;;;;12.09;81.86;100890.31;5059024;28;20169;-75
2022/11/03 07:27:36;;;;;;;16.55;5.00;;;;;;;12.10;81.86;100882.50;5057674;28;20083;-76
2022/11/03 07:30:16;;;;;;;32.90;4.45;;;;;;;12.10;81.91;100874.66;5059503;28;20039;-76
2022/11/03 07:32:42;;;;;;;21.70;4.82;;;;;;;12.11;81.73;100865.09;5078670;28;20021;-76
2022/11/03 07:35:16;;;;;;;18.90;5.35;;;;;;;12.13;81.30;100860.78;5063802;28;20184;-75
2022/11/03 07:37:43;;;;;;;21.55;4.55;;;;;;;12.14;80.73;100862.53;5064475;28;20294;-66
2022/11/03 07:40:22;;;;;;;20.40;4.28;;;;;;;12.19;80.78;100863.50;5063953;28;20025;-66
2022/11/03 07:42:47;;;;;;;22.97;5.03;;;;;;;12.21;80.69;100861.81;5064215;28;20328;-66
2022/11/03 07:45:36;;;;;;;20.92;5.00;;;;;;;12.23;80.57;100852.25;5063995;28;20366;-66
2022/11/03 07:48:19;;;;;;;17.67;4.55;;;;;;;12.26;80.38;100861.88;5056797;28;21015;-66
2022/11/03 07:50:50;;;;;;;18.85;4.55;;;;;;;12.27;80.44;100864.50;5057710;28;20029;-66
2022/11/03 07:53:20;;;;;;;21.02;4.40;;;;;;;12.28;80.48;100871.50;5059922;28;20230;-66
2022/11/03 07:55:46;;;;;;;20.13;5.13;;;;;;;12.29;80.46;100869.75;5062034;28;20048;-65
2022/11/03 07:58:19;;;;;;;16.70;4.70;;;;;;;12.29;80.39;100873.25;5061212;28;20034;-66
2022/11/03 08:00:45;;;;;;;16.25;4.22;;;;;;;12.30;80.25;100869.78;5061459;28;20083;-66
2022/11/03 08:03:26;;;;;;;17.33;4.47;;;;;;;12.33;80.13;100877.66;5062028;28;20028;-66
2022/11/03 08:05:51;;;;;;;19.17;5.03;;;;;;;12.33;80.15;100862.00;5061992;28;20093;-66
2022/11/03 08:08:16;;;;;;;22.15;4.47;;;;;;;12.34;79.71;100857.66;5060151;28;20172;-66
2022/11/03 08:10:42;;;;;;;22.67;5.03;;;;;;;12.37;79.48;100849.88;5063062;28;20039;-66
2022/11/03 08:13:07;;;;;;;54.67;7.43;;;;;;;12.38;79.69;100849.00;5063621;28;20079;-66
2022/11/03 08:15:32;;;;;;;18.48;4.93;;;;;;;12.40;79.47;100836.84;5062996;28;20053;-66
2022/11/03 08:17:58;;;;;;;21.42;4.40;;;;;;;12.41;79.74;100840.34;5062751;28;20032;-66
2022/11/03 08:20:23;;;;;;;16.65;4.22;;;;;;;12.42;79.46;100836.88;5060599;28;20087;-66
2022/11/03 08:22:48;;;;;;;19.17;4.63;;;;;;;12.44;79.20;100822.09;5065905;28;20016;-66
2022/11/03 08:25:13;;;;;;;18.48;4.90;;;;;;;12.44;79.24;100815.16;5063417;28;20041;-66
2022/11/03 08:27:39;;;;;;;16.98;3.90;;;;;;;12.45;79.19;100811.66;5065270;28;20089;-66
2022/11/03 08:30:04;;;;;;;15.73;4.70;;;;;;;12.47;79.17;100803.84;5062715;28;20041;-66
2022/11/03 08:32:30;;;;;;;16.98;3.92;;;;;;;12.48;79.23;100797.75;5062349;28;20021;-66
2022/11/03 08:34:55;;;;;;;16.85;5.00;;;;;;;12.49;79.10;100796.91;5061828;28;20057;-66
2022/11/03 08:37:20;;;;;;;20.50;5.50;;;;;;;12.51;78.83;100789.97;5063268;28;20088;-76
2022/11/03 08:39:45;;;;;;;23.60;4.60;;;;;;;12.51;78.88;100783.03;5062812;28;20021;-76
2022/11/03 08:42:11;;;;;;;15.88;4.20;;;;;;;12.53;78.43;100777.81;5060031;28;20152;-76
2022/11/03 08:44:36;;;;;;;23.17;4.43;;;;;;;12.56;78.48;100764.78;5063620;28;20036;-76
2022/11/03 08:47:01;;;;;;;21.42;4.65;;;;;;;12.57;78.79;100753.47;5062772;28;20041;-77
2022/11/03 08:49:26;;;;;;;17.13;4.55;;;;;;;12.59;78.92;100746.53;5062436;28;20028;-76
2022/11/03 08:51:52;;;;;;;18.13;4.60;;;;;;;12.62;77.91;100736.09;5063096;28;20082;-76
2022/11/03 08:54:17;;;;;;;21.15;4.50;;;;;;;12.66;78.07;100734.44;5061449;28;20049;-76
2022/11/03 08:56:43;;;;;;;15.23;3.97;;;;;;;12.70;77.72;100729.25;5060960;28;20092;-76
2022/11/03 08:59:08;;;;;;;17.10;4.25;;;;;;;12.75;77.51;100731.06;5062401;28;20256;-75
2022/11/03 09:01:33;;;;;;;17.05;4.30;;;;;;;12.80;77.50;100724.13;5062866;28;20029;-76
2022/11/03 09:03:59;;;;;;;19.80;4.13;;;;;;;12.85;76.96;100723.34;5061737;28;20040;-76
2022/11/03 09:06:24;;;;;;;17.30;3.95;;;;;;;12.90;76.30;100710.31;5076553;28;20043;-66
2022/11/03 09:08:49;;;;;;;13.98;4.22;;;;;;;12.95;77.02;100708.63;5060417;28;20219;-66
2022/11/03 09:11:15;;;;;;;18.90;4.47;;;;;;;12.97;76.08;100696.44;5060768;28;20187;-66
2022/11/03 09:13:40;;;;;;;16.00;4.60;;;;;;;13.02;76.45;100688.63;5056616;28;20100;-66
2022/11/03 09:16:06;;;;;;;13.65;3.60;;;;;;;13.05;75.58;100686.09;5054179;28;20051;-66
2022/11/03 09:18:32;;;;;;;15.05;4.13;;;;;;;13.10;74.90;100676.53;5060664;28;20022;-66
2022/11/03 09:20:58;;;;;;;13.88;3.88;;;;;;;13.13;75.17;100673.94;5060574;28;20071;-66
2022/11/03 09:23:23;;;;;;;17.02;4.20;;;;;;;13.16;74.66;100655.66;5059870;28;20032;-66
2022/11/03 09:25:48;;;;;;;15.55;3.95;;;;;;;13.20;74.84;100651.34;5058870;28;20180;-66
2022/11/03 09:28:13;;;;;;;17.00;4.70;;;;;;;13.19;75.12;100631.25;5059419;28;20095;-66
2022/11/03 09:30:39;;;;;;;14.77;3.67;;;;;;;13.20;75.16;100625.19;5061291;28;20263;-66
2022/11/03 09:33:04;;;;;;;11.98;3.70;;;;;;;13.25;74.29;100620.84;5058579;28;20040;-66
2022/11/03 09:35:29;;;;;;;15.18;4.10;;;;;;;13.28;74.69;100625.25;5075208;28;20037;-66
2022/11/03 09:37:54;;;;;;;23.27;5.13;;;;;;;13.29;74.82;100620.03;5057511;28;20051;-66
2022/11/03 09:40:20;;;;;;;17.60;4.13;;;;;;;13.31;74.31;100613.06;5058611;28;20115;-66
2022/11/03 09:42:46;;;;;;;13.18;3.80;;;;;;;13.32;74.09;100609.56;5061376;28;20045;-66
2022/11/03 09:45:11;;;;;;;18.65;4.22;;;;;;;13.34;73.99;100602.66;5061963;28;20028;-66
2022/11/03 09:47:40;;;;;;;15.32;3.70;;;;;;;13.35;74.43;100598.28;5059925;28;20028;-66
2022/11/03 09:50:10;;;;;;;16.77;4.45;;;;;;;13.37;74.04;100601.81;5072040;28;20037;-66
2022/11/03 09:52:35;;;;;;;19.30;4.03;;;;;;;13.36;74.07;100590.47;5056640;28;20453;-66
2022/11/03 09:55:01;;;;;;;11.23;3.70;;;;;;;13.34;74.49;100586.97;5060800;28;20248;-66
2022/11/03 09:57:27;;;;;;;17.42;4.55;;;;;;;13.35;74.63;100588.72;5058825;28;20041;-66
2022/11/03 09:59:53;;;;;;;18.13;3.72;;;;;;;13.32;74.58;100578.16;5061114;28;20040;-66
2022/11/03 10:02:28;;;;;;;16.05;4.10;;;;;;;13.32;74.98;100572.94;5058712;28;20032;-66
2022/11/03 10:04:56;;;;;;;11.73;3.90;;;;;;;13.33;74.19;100571.22;5060434;28;20071;-66
2022/11/03 10:07:24;;;;;;;13.70;3.42;;;;;;;13.32;74.03;100574.69;5059796;28;20043;-76
2022/11/03 10:09:51;;;;;;;11.02;3.90;;;;;;;13.33;73.73;100572.09;5055771;28;20082;-76
2022/11/03 10:12:16;;;;;;;15.35;4.22;;;;;;;13.32;73.86;100567.72;5073244;28;20024;-77
2022/11/03 10:14:44;;;;;;;17.50;4.20;;;;;;;13.32;73.72;100562.47;5061219;28;20025;-77
2022/11/03 10:17:17;;;;;;;17.63;4.55;;;;;;;13.30;73.98;100548.50;5076701;28;20222;-77
2022/11/03 10:19:46;;;;;;;12.70;3.53;;;;;;;13.32;73.81;100553.75;5061913;28;20252;-77
2022/11/03 10:22:11;;;;;;;19.20;4.47;;;;;;;13.30;73.67;100543.28;5060235;28;20111;-76
2022/11/03 10:24:37;;;;;;;15.00;3.90;;;;;;;13.31;74.11;100538.91;5061508;28;20028;-76
2022/11/03 10:27:02;;;;;;;10.43;3.97;;;;;;;13.31;74.27;100534.56;5060767;28;20025;-77
2022/11/03 10:29:28;;;;;;;14.38;4.40;;;;;;;13.30;73.80;100543.28;5059921;28;20058;-76
2022/11/03 10:31:55;;;;;;;22.80;4.53;;;;;;;13.31;73.73;100537.19;5061659;28;20168;-76
2022/11/03 10:34:32;;;;;;;17.25;3.63;;;;;;;13.34;73.37;100533.72;5060661;28;20045;-77
2022/11/03 10:37:34;;;;;;;16.50;3.95;;;;;;;13.36;73.51;100525.03;5060488;28;20216;-77
2022/11/03 10:39:59;;;;;;;18.83;3.67;;;;;;;13.39;72.60;100527.66;5059451;28;20040;-76
2022/11/03 10:42:29;;;;;;;14.27;3.53;;;;;;;13.43;73.39;100523.34;5060445;28;20086;-77
2022/11/03 10:45:18;;;;;;;15.23;3.90;;;;;;;13.46;73.53;100507.66;5059884;28;20053;-76
2022/11/03 10:47:43;;;;;;;11.75;3.35;;;;;;;13.52;72.37;100517.28;5060228;28;20028;-76
2022/11/03 10:50:21;;;;;;;12.18;3.67;;;;;;;13.55;73.00;100499.84;5062149;28;20025;-77
2022/11/03 10:52:48;;;;;;;14.13;3.75;;;;;;;13.59;72.93;100519.09;5058577;28;20044;-76
2022/11/03 10:55:15;;;;;;;11.27;3.50;;;;;;;13.66;72.17;100499.06;5064929;28;20079;-76
2022/11/03 10:57:40;;;;;;;17.15;3.63;;;;;;;13.69;72.11;100509.53;5065205;28;20075;-76
2022/11/03 11:00:08;;;;;;;14.35;3.88;;;;;;;13.71;71.99;100503.41;5063965;28;20041;-77
2022/11/03 11:02:35;;;;;;;14.82;4.22;;;;;;;13.73;71.48;100498.22;5065083;28;20116;-77
2022/11/03 11:05:08;;;;;;;12.60;3.85;;;;;;;13.76;72.07;100495.63;5065513;28;20052;-76
2022/11/03 11:07:42;;;;;;;22.35;3.70;;;;;;;13.79;71.96;100479.91;5057838;28;20032;-67
2022/11/03 11:10:17;;;;;;;11.73;3.78;;;;;;;13.83;70.58;100486.03;5064254;28;20096;-67
2022/11/03 11:13:20;;;;;;;14.48;4.03;;;;;;;13.87;71.89;100472.94;5062292;28;20088;-66
2022/11/03 11:15:51;;;;;;;10.77;3.55;;;;;;;13.88;70.84;100479.94;5023136;28;20029;-66
2022/11/03 11:18:39;;;;;;;16.65;3.70;;;;;;;13.90;71.14;100467.75;4986797;28;20119;-66
2022/11/03 11:21:14;;;;;;;18.30;3.88;;;;;;;13.89;70.94;100466.00;5044671;28;20032;-66
2022/11/03 11:23:40;;;;;;;13.73;3.63;;;;;;;13.91;70.15;100458.13;5064452;28;20025;-66
2022/11/03 11:26:08;;;;;;;13.20;3.63;;;;;;;13.92;69.81;100444.19;5063906;28;20036;-66
2022/11/03 11:28:38;;;;;;;10.27;3.15;;;;;;;13.93;69.62;100443.28;5064329;28;20196;-66
2022/11/03 11:31:30;;;;;;;14.20;3.40;;;;;;;13.95;69.88;100446.81;5063119;28;20234;-66
2022/11/03 11:34:07;;;;;;;9.25;3.28;;;;;;;13.97;70.52;100433.72;5058910;28;20045;-66
2022/11/03 11:36:33;;;;;;;13.68;3.55;;;;;;;14.02;69.02;100425.00;5063531;28;20253;-76
2022/11/03 11:38:59;;;;;;;10.52;3.53;;;;;;;14.05;68.65;100413.66;5065005;28;20331;-77
2022/11/03 11:42:02;;;;;;;12.15;3.65;;;;;;;14.08;69.07;100406.66;5063918;28;20013;-77
2022/11/03 11:44:46;;;;;;;10.02;3.45;;;;;;;14.11;68.86;100402.28;5062498;28;20075;-77
2022/11/03 11:47:41;;;;;;;18.27;3.60;;;;;;;14.13;69.35;100397.94;5064252;28;20102;-77
2022/11/03 11:50:10;;;;;;;13.32;3.42;;;;;;;14.13;68.18;100388.31;5053285;28;20025;-77